createdAt,value
2019-01-25T00:04:38.152Z,21.60
2019-01-25T00:07:31.809Z,23.00
2019-01-25T00:10:37.936Z,21.70
2019-01-25T00:13:10.278Z,22.87
2019-01-25T00:18:51.570Z,22.10
2019-01-25T00:21:27.469Z,20.57
2019-01-25T00:24:00.658Z,21.82
2019-01-25T00:26:33.944Z,22.27
2019-01-25T00:29:10.137Z,22.52
2019-01-25T00:31:42.197Z,20.30
2019-01-25T00:34:13.570Z,21.57
2019-01-25T00:36:46.943Z,23.57
2019-01-25T00:39:20.120Z,23.73
2019-01-25T00:41:55.278Z,23.00
2019-01-25T00:44:27.467Z,23.27
2019-01-25T00:47:00.175Z,23.07
2019-01-25T00:49:39.839Z,24.50
2019-01-25T00:52:11.622Z,24.95
2019-01-25T00:54:42.595Z,24.77
2019-01-25T00:57:22.189Z,24.32
2019-01-25T00:59:58.919Z,24.47
2019-01-25T01:02:38.302Z,25.05
2019-01-25T01:05:16.287Z,24.75
2019-01-25T01:08:08.139Z,23.73
2019-01-25T01:10:53.009Z,24.05
2019-01-25T01:13:29.680Z,25.52
2019-01-25T01:16:12.988Z,24.30
2019-01-25T01:18:51.715Z,25.68
2019-01-25T01:21:23.459Z,24.82
2019-01-25T01:23:56.084Z,26.15
2019-01-25T01:26:55.267Z,23.75
2019-01-25T01:29:31.870Z,25.02
2019-01-25T01:32:17.747Z,25.52
2019-01-25T01:34:54.502Z,25.80
2019-01-25T01:38:11.130Z,27.20
2019-01-25T01:40:57.442Z,25.68
2019-01-25T01:43:39.324Z,25.55
2019-01-25T01:46:35.716Z,25.52
2019-01-25T01:49:15.647Z,25.27
2019-01-25T01:51:50.585Z,25.82
2019-01-25T01:54:34.790Z,28.05
2019-01-25T01:57:31.446Z,27.70
2019-01-25T02:00:06.997Z,26.12
2019-01-25T02:02:40.325Z,28.35
2019-01-25T02:05:30.092Z,26.87
2019-01-25T02:08:06.813Z,26.57
2019-01-25T02:10:52.639Z,26.33
2019-01-25T02:13:36.264Z,27.52
2019-01-25T02:16:27.768Z,27.73
2019-01-25T02:19:29.890Z,28.40
2019-01-25T02:22:03.324Z,27.02
2019-01-25T02:24:33.990Z,28.25
2019-01-25T02:27:15.918Z,27.35
2019-01-25T02:30:12.197Z,28.87
2019-01-25T02:33:22.119Z,28.45
2019-01-25T02:36:07.140Z,27.73
2019-01-25T02:39:02.394Z,28.98
2019-01-25T02:41:41.613Z,27.98
2019-01-25T02:44:23.247Z,28.55
2019-01-25T02:47:05.347Z,27.55
2019-01-25T02:49:43.294Z,28.32
2019-01-25T02:52:16.550Z,26.70
2019-01-25T02:55:31.103Z,28.42
2019-01-25T02:58:08.003Z,27.95
2019-01-25T03:04:07.378Z,27.40
2019-01-25T03:06:49.833Z,28.95
2019-01-25T03:09:29.804Z,29.40
2019-01-25T03:12:10.732Z,29.52
2019-01-25T03:15:02.981Z,28.38
2019-01-25T03:17:47.396Z,28.35
2019-01-25T03:20:39.224Z,30.45
2019-01-25T03:23:46.370Z,29.55
2019-01-25T03:26:19.755Z,27.20
2019-01-25T03:29:05.220Z,27.45
2019-01-25T03:31:45.220Z,26.50
2019-01-25T03:34:18.346Z,25.23
2019-01-25T03:36:58.819Z,26.50
2019-01-25T03:39:30.341Z,26.42
2019-01-25T03:42:00.757Z,25.80
2019-01-25T03:44:31.037Z,24.27
2019-01-25T03:47:15.255Z,25.37
2019-01-25T03:49:45.597Z,25.80
2019-01-25T03:52:15.780Z,25.50
2019-01-25T03:54:56.574Z,24.98
2019-01-25T03:57:32.144Z,26.48
2019-01-25T04:00:13.202Z,24.70
2019-01-25T04:02:44.689Z,24.70
2019-01-25T04:05:17.714Z,26.17
2019-01-25T04:07:50.537Z,24.85
2019-01-25T04:10:22.557Z,24.55
2019-01-25T04:13:00.240Z,25.43
2019-01-25T04:15:35.952Z,24.47
2019-01-25T04:18:12.701Z,24.05
2019-01-25T04:20:47.129Z,24.65
2019-01-25T04:23:18.413Z,24.60
2019-01-25T04:25:55.287Z,25.80
2019-01-25T04:28:28.455Z,25.72
2019-01-25T04:31:02.646Z,25.43
2019-01-25T04:33:39.260Z,24.00
2019-01-25T04:36:14.314Z,26.70
2019-01-25T04:38:46.576Z,26.05
2019-01-25T04:41:22.703Z,26.40
2019-01-25T04:43:54.490Z,25.70
2019-01-25T04:46:42.677Z,26.45
2019-01-25T04:49:41.432Z,26.45
2019-01-25T04:52:32.353Z,26.20
2019-01-25T04:55:21.961Z,25.40
2019-01-25T04:57:53.955Z,25.08
2019-01-25T05:00:27.238Z,25.70
2019-01-25T05:03:12.689Z,25.65
2019-01-25T05:05:56.699Z,26.62
2019-01-25T05:08:31.773Z,27.15
2019-01-25T05:11:20.026Z,25.57
2019-01-25T05:13:49.005Z,25.02
2019-01-25T05:16:18.586Z,24.95
2019-01-25T05:18:48.159Z,25.48
2019-01-25T05:21:23.318Z,26.48
2019-01-25T05:23:53.488Z,25.43
2019-01-25T05:26:23.272Z,26.48
2019-01-25T05:28:52.857Z,25.70
2019-01-25T05:31:26.014Z,26.85
2019-01-25T05:33:57.009Z,24.55
2019-01-25T05:36:26.703Z,26.30
2019-01-25T05:38:56.255Z,26.15
2019-01-25T05:41:28.658Z,27.15
2019-01-25T05:43:57.022Z,25.32
2019-01-25T05:46:26.542Z,25.35
2019-01-25T05:48:56.070Z,25.35
2019-01-25T05:51:33.388Z,24.40
2019-01-25T05:53:56.752Z,26.57
2019-01-25T05:56:26.263Z,25.27
2019-01-25T05:58:55.619Z,27.02
2019-01-25T06:01:26.412Z,25.05
2019-01-25T06:03:56.070Z,25.57
2019-01-25T06:06:25.405Z,26.57
2019-01-25T06:08:54.767Z,25.23
2019-01-25T06:11:24.066Z,26.60
2019-01-25T06:13:53.404Z,25.88
2019-01-25T06:16:22.979Z,26.70
2019-01-25T06:18:52.384Z,26.77
2019-01-25T06:21:21.747Z,27.60
2019-01-25T06:23:54.887Z,27.45
2019-01-25T06:26:24.230Z,27.60
2019-01-25T06:28:53.597Z,30.08
2019-01-25T06:31:23.502Z,29.85
2019-01-25T06:33:52.867Z,27.20
2019-01-25T06:36:22.161Z,26.52
2019-01-25T06:38:51.485Z,26.70
2019-01-25T06:41:20.821Z,28.50
2019-01-25T06:43:50.313Z,27.25
2019-01-25T06:46:19.659Z,27.40
2019-01-25T06:48:49.239Z,26.42
2019-01-25T06:51:18.546Z,26.93
2019-01-25T06:53:47.879Z,25.90
2019-01-25T06:56:17.354Z,26.15
2019-01-25T06:59:04.474Z,26.52
2019-01-25T07:01:44.348Z,25.92
2019-01-25T07:04:13.650Z,27.07
2019-01-25T07:06:43.014Z,27.15
2019-01-25T07:09:13.360Z,27.15
2019-01-25T07:11:43.062Z,26.97
2019-01-25T07:14:12.411Z,26.75
2019-01-25T07:16:41.777Z,27.02
2019-01-25T07:19:11.061Z,29.02
2019-01-25T07:21:40.407Z,26.90
2019-01-25T07:24:09.677Z,28.85
2019-01-25T07:26:39.374Z,28.35
2019-01-25T07:29:08.715Z,28.20
2019-01-25T07:31:38.381Z,27.07
2019-01-25T07:34:08.913Z,27.93
2019-01-25T07:36:38.308Z,26.73
2019-01-25T07:39:21.051Z,27.65
2019-01-25T07:41:50.450Z,25.77
2019-01-25T07:44:19.790Z,26.20
2019-01-25T07:46:49.115Z,24.95
2019-01-25T07:49:18.428Z,23.67
2019-01-25T07:51:48.085Z,23.30
2019-01-25T07:54:17.458Z,22.73
2019-01-25T07:56:46.831Z,23.75
2019-01-25T07:59:16.180Z,22.55
2019-01-25T08:01:45.591Z,22.95
2019-01-25T08:04:15.153Z,22.20
2019-01-25T08:06:47.433Z,24.18
2019-01-25T08:09:28.402Z,24.37
2019-01-25T08:11:57.814Z,25.10
2019-01-25T08:14:27.143Z,25.55
2019-01-25T08:16:56.886Z,25.32
2019-01-25T08:19:26.309Z,25.85
2019-01-25T08:21:55.871Z,25.20
2019-01-25T08:24:25.574Z,21.15
2019-01-25T08:26:57.001Z,21.48
2019-01-25T08:29:28.147Z,22.37
2019-01-25T08:31:57.507Z,22.27
2019-01-25T08:34:26.957Z,21.55
2019-01-25T08:36:56.495Z,21.45
2019-01-25T08:39:26.020Z,21.70
2019-01-25T08:41:55.364Z,22.42
2019-01-25T08:44:25.218Z,22.07
2019-01-25T08:46:54.544Z,22.30
2019-01-25T08:49:26.493Z,23.57
2019-01-25T08:51:55.908Z,22.98
2019-01-25T08:54:25.274Z,23.75
2019-01-25T08:56:54.640Z,23.60
2019-01-25T08:59:25.483Z,21.80
2019-01-25T09:01:54.924Z,22.45
2019-01-25T09:04:24.285Z,25.35
2019-01-25T09:06:53.835Z,22.32
2019-01-25T09:09:23.243Z,23.20
2019-01-25T09:11:52.610Z,23.57
2019-01-25T09:14:21.981Z,24.02
2019-01-25T09:16:51.391Z,23.10
2019-01-25T09:19:20.863Z,22.77
2019-01-25T09:21:50.331Z,22.40
2019-01-25T09:24:19.724Z,22.05
2019-01-25T09:26:49.078Z,24.12
2019-01-25T09:29:18.443Z,23.12
2019-01-25T09:31:47.751Z,22.85
2019-01-25T09:34:17.038Z,21.73
2019-01-25T09:36:46.599Z,22.73
2019-01-25T09:39:15.901Z,22.65
2019-01-25T09:41:45.281Z,21.23
2019-01-25T09:44:14.580Z,24.55
2019-01-25T09:46:43.944Z,22.15
2019-01-25T09:49:13.246Z,22.17
2019-01-25T09:51:42.778Z,22.13
2019-01-25T09:54:12.107Z,20.90
2019-01-25T09:56:41.488Z,21.02
2019-01-25T09:59:10.835Z,20.95
2019-01-25T10:01:40.213Z,22.40
2019-01-25T10:04:09.806Z,21.02
2019-01-25T10:06:39.145Z,21.40
2019-01-25T10:09:09.706Z,21.45
2019-01-25T10:11:39.075Z,19.75
2019-01-25T10:14:08.443Z,22.20
2019-01-25T10:16:38.214Z,20.55
2019-01-25T10:19:07.558Z,21.40
2019-01-25T10:21:36.903Z,21.55
2019-01-25T10:24:06.259Z,20.60
2019-01-25T10:26:35.507Z,19.42
2019-01-25T10:29:05.153Z,20.85
2019-01-25T10:31:34.519Z,22.90
2019-01-25T10:34:03.844Z,20.75
2019-01-25T10:36:33.146Z,22.02
2019-01-25T10:39:02.686Z,22.73
2019-01-25T10:41:32.023Z,21.70
2019-01-25T10:44:01.435Z,22.37
2019-01-25T10:46:30.733Z,20.97
2019-01-25T10:49:00.125Z,20.65
2019-01-25T10:51:29.441Z,20.48
2019-01-25T10:53:58.841Z,20.88
2019-01-25T10:56:28.151Z,20.65
2019-01-25T10:58:57.642Z,21.57
2019-01-25T11:01:26.995Z,20.25
2019-01-25T11:03:56.369Z,20.57
2019-01-25T11:06:25.656Z,20.30
2019-01-25T11:08:55.026Z,19.55
2019-01-25T11:11:24.341Z,19.77
2019-01-25T11:13:53.847Z,17.45
2019-01-25T11:16:23.204Z,20.95
2019-01-25T11:18:52.620Z,18.87
2019-01-25T11:21:21.948Z,18.92
2019-01-25T11:23:51.262Z,18.57
2019-01-25T11:26:20.615Z,18.70
2019-01-25T11:28:50.094Z,17.65
2019-01-25T11:31:19.452Z,18.48
2019-01-25T11:33:48.772Z,19.32
2019-01-25T11:36:18.130Z,18.48
2019-01-25T11:38:47.445Z,19.40
2019-01-25T11:41:16.800Z,18.52
2019-01-25T11:43:46.110Z,17.60
2019-01-25T11:46:15.466Z,17.15
2019-01-25T11:48:44.942Z,17.80
2019-01-25T11:51:14.269Z,15.80
2019-01-25T11:53:43.594Z,17.30
2019-01-25T11:56:12.955Z,16.35
2019-01-25T11:58:42.295Z,17.50
2019-01-25T12:01:11.649Z,17.35
2019-01-25T12:03:41.038Z,17.87
2019-01-25T12:06:10.494Z,18.90
2019-01-25T12:08:39.838Z,18.70
2019-01-25T12:11:09.257Z,19.42
2019-01-25T12:13:38.622Z,17.55
2019-01-25T12:16:07.978Z,17.35
2019-01-25T12:18:37.460Z,18.62
2019-01-25T12:21:06.852Z,17.82
2019-01-25T12:23:36.295Z,18.65
2019-01-25T12:26:05.697Z,19.05
2019-01-25T12:28:35.036Z,19.17
2019-01-25T12:31:04.713Z,19.12
2019-01-25T12:33:34.176Z,18.40
2019-01-25T12:36:03.492Z,18.30
2019-01-25T12:38:32.811Z,17.45
2019-01-25T12:41:02.251Z,17.23
2019-01-25T12:43:31.815Z,18.30
2019-01-25T12:46:01.177Z,17.55
2019-01-25T12:48:30.563Z,18.20
2019-01-25T12:51:04.567Z,18.27
2019-01-25T12:53:34.525Z,17.23
2019-01-25T12:56:03.915Z,16.25
2019-01-25T12:58:33.364Z,17.92
2019-01-25T13:01:02.679Z,17.48
2019-01-25T13:03:32.142Z,17.35
2019-01-25T13:06:01.498Z,15.32
2019-01-25T13:08:30.959Z,14.55
2019-01-25T13:11:00.369Z,15.13
2019-01-25T13:13:31.735Z,14.63
2019-01-25T13:16:00.990Z,14.23
2019-01-25T13:18:30.459Z,12.55
2019-01-25T13:20:59.840Z,13.38
2019-01-25T13:23:29.194Z,12.88
2019-01-25T13:25:58.496Z,13.50
2019-01-25T13:28:28.002Z,12.50
2019-01-25T13:30:57.431Z,12.50
2019-01-25T13:33:26.905Z,13.72
2019-01-25T13:35:56.280Z,12.43
2019-01-25T13:38:25.651Z,11.18
2019-01-25T13:40:55.021Z,10.90
2019-01-25T13:43:24.374Z,12.05
2019-01-25T13:45:53.786Z,16.80
2019-01-25T13:48:23.118Z,13.38
2019-01-25T13:50:52.493Z,10.60
2019-01-25T13:53:21.850Z,11.18
2019-01-25T13:55:51.259Z,11.33
2019-01-25T13:58:20.610Z,10.82
2019-01-25T14:00:50.103Z,11.70
2019-01-25T14:03:19.490Z,13.85
2019-01-25T14:05:48.896Z,11.57
2019-01-25T14:08:18.335Z,11.20
2019-01-25T14:10:47.816Z,11.85
2019-01-25T14:13:17.564Z,17.23
2019-01-25T14:15:47.237Z,14.80
2019-01-25T14:18:16.909Z,14.05
2019-01-25T14:20:46.551Z,12.28
2019-01-25T14:23:16.519Z,11.97
2019-01-25T14:25:46.284Z,11.43
2019-01-25T14:28:15.943Z,14.78
2019-01-25T14:30:45.744Z,12.37
2019-01-25T14:33:33.182Z,11.97
2019-01-25T14:36:02.906Z,12.45
2019-01-25T14:38:32.597Z,11.20
2019-01-25T14:41:02.254Z,11.97
2019-01-25T14:43:31.853Z,11.40
2019-01-25T14:46:01.377Z,13.78
2019-01-25T14:48:30.954Z,12.98
2019-01-25T14:51:00.515Z,12.43
2019-01-25T14:53:30.317Z,12.88
2019-01-25T14:55:59.917Z,12.23
2019-01-25T14:58:29.506Z,11.03
2019-01-25T15:00:59.051Z,11.73
2019-01-25T15:06:45.602Z,11.88
2019-01-25T15:09:15.296Z,11.45
2019-01-25T15:11:44.862Z,10.78
2019-01-25T15:14:14.485Z,11.75
2019-01-25T15:16:44.248Z,14.18
2019-01-25T15:19:13.836Z,12.13
2019-01-25T15:21:43.622Z,12.90
2019-01-25T15:24:13.184Z,11.95
2019-01-25T15:26:43.251Z,11.88
2019-01-25T15:29:16.125Z,12.60
2019-01-25T15:31:45.683Z,12.90
2019-01-25T15:34:15.706Z,12.18
2019-01-25T15:36:45.339Z,12.98
2019-01-25T15:39:15.092Z,13.15
2019-01-25T15:41:44.626Z,14.20
2019-01-25T15:44:16.385Z,13.08
2019-01-25T15:46:45.955Z,13.80
2019-01-25T15:49:16.853Z,15.88
2019-01-25T15:51:46.415Z,13.53
2019-01-25T15:54:16.152Z,15.65
2019-01-25T15:56:45.753Z,12.65
2019-01-25T15:59:15.418Z,12.80
2019-01-25T16:01:44.978Z,12.98
2019-01-25T16:04:14.612Z,13.75
2019-01-25T16:06:44.329Z,12.70
2019-01-25T16:09:14.912Z,13.05
2019-01-25T16:11:50.980Z,13.53
2019-01-25T16:14:20.693Z,13.78
2019-01-25T16:16:50.294Z,13.55
2019-01-25T16:19:20.079Z,13.68
2019-01-25T16:25:35.656Z,13.35
2019-01-25T16:28:05.705Z,13.28
2019-01-25T16:30:37.877Z,12.37
2019-01-25T16:33:07.937Z,12.93
2019-01-25T16:35:37.704Z,14.53
2019-01-25T16:38:07.583Z,11.97
2019-01-25T16:40:37.223Z,12.90
2019-01-25T16:43:08.921Z,13.28
2019-01-25T16:45:40.812Z,18.10
2019-01-25T16:48:11.752Z,22.10
2019-01-25T16:50:41.577Z,17.73
2019-01-25T16:53:13.899Z,15.00
2019-01-25T16:55:43.595Z,15.08
2019-01-25T16:58:13.216Z,15.78
2019-01-25T17:00:45.217Z,17.70
2019-01-25T17:03:32.712Z,17.05
2019-01-25T17:06:02.321Z,16.10
2019-01-25T17:09:25.780Z,14.80
2019-01-25T17:11:55.399Z,15.48
2019-01-25T17:14:25.035Z,15.25
2019-01-25T17:16:54.978Z,13.53
2019-01-25T17:19:24.946Z,13.03
2019-01-25T17:21:54.591Z,14.55
2019-01-25T17:24:24.174Z,15.23
2019-01-25T17:26:53.800Z,12.15
2019-01-25T17:29:23.765Z,13.83
2019-01-25T17:31:53.890Z,13.70
2019-01-25T17:34:23.780Z,12.00
2019-01-25T17:36:53.480Z,12.70
2019-01-25T17:39:23.087Z,11.20
2019-01-25T17:41:52.759Z,11.97
2019-01-25T17:44:22.522Z,12.15
2019-01-25T17:46:52.143Z,12.35
2019-01-25T17:49:21.865Z,10.40
2019-01-25T17:51:51.532Z,11.68
2019-01-25T17:54:21.122Z,11.83
2019-01-25T17:56:50.850Z,9.63
2019-01-25T17:59:20.489Z,11.63
2019-01-25T18:02:25.663Z,12.23
2019-01-25T18:04:55.259Z,11.20
2019-01-25T18:07:24.913Z,13.35
2019-01-25T18:09:54.485Z,13.45
2019-01-25T18:12:24.316Z,11.65
2019-01-25T18:14:53.915Z,11.53
2019-01-25T18:17:23.490Z,12.10
2019-01-25T18:19:53.215Z,14.55
2019-01-25T18:22:23.047Z,14.75
2019-01-25T18:24:52.666Z,15.35
2019-01-25T18:27:22.427Z,13.35
2019-01-25T18:29:56.772Z,13.10
2019-01-25T18:32:27.505Z,13.95
2019-01-25T18:34:59.352Z,12.93
2019-01-25T18:37:29.088Z,12.88
2019-01-25T18:39:58.683Z,14.10
2019-01-25T18:42:28.335Z,15.32
2019-01-25T18:44:58.030Z,13.50
2019-01-25T18:51:08.537Z,11.18
2019-01-25T18:53:38.687Z,9.65
2019-01-25T18:57:02.751Z,9.15
2019-01-25T18:59:32.407Z,7.60
2019-01-25T19:02:03.638Z,8.10
2019-01-25T19:04:33.360Z,7.78
2019-01-25T19:07:02.970Z,8.58
2019-01-25T19:09:32.699Z,8.25
2019-01-25T19:12:03.422Z,6.92
2019-01-25T19:14:33.064Z,7.40
2019-01-25T19:17:03.092Z,6.87
2019-01-25T19:19:34.320Z,7.42
2019-01-25T19:22:03.937Z,6.83
2019-01-25T19:24:33.603Z,11.33
2019-01-25T19:27:03.112Z,8.35
2019-01-25T19:29:32.672Z,7.78
2019-01-25T19:32:02.342Z,7.12
2019-01-25T19:34:31.979Z,7.47
2019-01-25T19:37:04.205Z,6.58
2019-01-25T19:39:33.932Z,6.50
2019-01-25T19:42:03.552Z,6.90
2019-01-25T19:44:33.278Z,6.45
2019-01-25T19:47:02.992Z,6.83
2019-01-25T19:49:32.683Z,6.92
2019-01-25T19:52:02.303Z,5.97
2019-01-25T19:54:31.925Z,6.03
2019-01-25T19:57:01.466Z,5.40
2019-01-25T19:59:31.049Z,6.00
2019-01-25T20:02:00.653Z,5.83
2019-01-25T20:04:30.216Z,5.33
2019-01-25T20:06:59.759Z,5.60
2019-01-25T20:09:29.334Z,5.87
2019-01-25T20:11:59.619Z,5.75
2019-01-25T20:14:29.374Z,5.70
2019-01-25T20:16:59.028Z,5.10
2019-01-25T20:19:28.616Z,5.00
2019-01-25T20:21:58.140Z,5.42
2019-01-25T20:24:47.034Z,5.92
2019-01-25T20:27:16.617Z,5.55
2019-01-25T20:29:46.426Z,5.12
2019-01-25T20:32:16.170Z,5.72
2019-01-25T20:34:46.171Z,5.67
2019-01-25T20:37:15.768Z,5.50
2019-01-25T20:39:45.458Z,4.85
2019-01-25T20:42:15.053Z,5.65
2019-01-25T20:44:44.701Z,5.65
2019-01-25T20:47:14.315Z,5.50
2019-01-25T20:49:47.514Z,6.45
2019-01-25T20:52:17.109Z,5.65
2019-01-25T20:54:46.758Z,6.35
2019-01-25T20:57:34.556Z,6.67
2019-01-25T21:00:08.517Z,6.72
2019-01-25T21:02:36.320Z,6.62
2019-01-25T21:05:10.590Z,6.40
2019-01-25T21:07:40.172Z,6.85
2019-01-25T21:10:12.504Z,6.90
2019-01-25T21:12:42.206Z,5.97
2019-01-25T21:15:13.550Z,6.53
2019-01-25T21:17:43.092Z,6.60
2019-01-25T21:20:19.694Z,6.53
2019-01-25T21:22:49.374Z,5.92
2019-01-25T21:25:19.108Z,5.50
2019-01-25T21:27:48.679Z,5.55
2019-01-25T21:30:29.812Z,6.12
2019-01-25T21:32:59.499Z,5.80
2019-01-25T21:35:29.154Z,5.28
2019-01-25T21:37:58.739Z,5.90
2019-01-25T21:40:29.876Z,5.45
2019-01-25T21:42:59.482Z,5.00
2019-01-25T21:45:30.965Z,5.17
2019-01-25T21:48:01.079Z,5.35
2019-01-25T21:50:33.204Z,5.10
2019-01-25T21:53:02.801Z,5.10
2019-01-25T21:55:32.377Z,5.40
2019-01-25T21:58:05.266Z,4.85
2019-01-25T22:00:33.972Z,4.95
2019-01-25T22:03:05.248Z,5.58
2019-01-25T22:05:34.943Z,5.95
2019-01-25T22:08:05.261Z,5.10
2019-01-25T22:10:39.965Z,5.40
2019-01-25T22:13:12.091Z,6.03
2019-01-25T22:15:41.811Z,5.03
2019-01-25T22:18:17.105Z,5.70
2019-01-25T22:20:46.742Z,5.55
2019-01-25T22:23:18.460Z,5.03
2019-01-25T22:25:48.103Z,5.47
2019-01-25T22:28:20.520Z,5.95
2019-01-25T22:30:50.069Z,5.87
2019-01-25T22:33:19.717Z,5.37
2019-01-25T22:35:49.666Z,5.25
2019-01-25T22:38:21.188Z,5.20
2019-01-25T22:40:50.803Z,5.10
2019-01-25T22:43:20.366Z,6.00
2019-01-25T22:45:49.960Z,5.22
2019-01-25T22:48:19.870Z,6.28
2019-01-25T22:50:49.429Z,6.70
2019-01-25T22:53:19.201Z,6.60
2019-01-25T22:55:48.765Z,6.58
2019-01-25T22:58:18.312Z,6.70
2019-01-25T23:01:15.178Z,6.10
2019-01-25T23:04:17.680Z,5.95
2019-01-25T23:06:50.727Z,8.13
2019-01-25T23:09:35.576Z,5.90
2019-01-25T23:12:06.181Z,6.00
2019-01-25T23:14:35.829Z,5.95
2019-01-25T23:17:05.670Z,6.35
2019-01-25T23:19:35.160Z,6.12
2019-01-25T23:22:05.039Z,5.60
2019-01-25T23:24:34.535Z,5.85
2019-01-25T23:27:04.119Z,5.35
2019-01-25T23:29:33.636Z,6.10
2019-01-25T23:32:03.154Z,5.45
2019-01-25T23:34:32.721Z,5.92
2019-01-25T23:37:02.252Z,5.75
2019-01-25T23:39:31.786Z,4.95
2019-01-25T23:42:01.339Z,5.10
2019-01-25T23:44:30.855Z,4.75
2019-01-25T23:47:00.614Z,4.47
2019-01-25T23:49:47.914Z,3.98
2019-01-25T23:52:17.567Z,4.08
2019-01-25T23:54:47.030Z,4.00
2019-01-25T23:57:16.552Z,4.45
2019-01-25T23:59:46.148Z,3.52
